createdAt,value
2023-05-04T00:00:48.672Z,64.75
2023-05-04T00:03:17.181Z,65.01
2023-05-04T00:05:45.722Z,65.03
2023-05-04T00:08:15.462Z,65.07
2023-05-04T00:10:43.870Z,65.25
2023-05-04T00:13:13.424Z,64.96
2023-05-04T00:15:42.027Z,65.23
2023-05-04T00:18:10.496Z,65.32
2023-05-04T00:20:39.273Z,65.14
2023-05-04T00:23:07.699Z,65.52
2023-05-04T00:25:37.423Z,65.65
2023-05-04T00:28:06.041Z,65.35
2023-05-04T00:30:34.475Z,65.48
2023-05-04T00:33:03.075Z,65.18
2023-05-04T00:35:32.033Z,65.00
2023-05-04T00:38:00.566Z,64.72
2023-05-04T00:40:29.062Z,64.39
2023-05-04T00:42:58.886Z,64.62
2023-05-04T00:45:27.759Z,64.98
2023-05-04T00:47:58.125Z,65.11
2023-05-04T00:50:27.252Z,64.97
2023-05-04T00:52:57.616Z,65.50
2023-05-04T00:55:26.287Z,65.70
2023-05-04T00:57:54.810Z,65.71
2023-05-04T01:00:25.165Z,65.39
2023-05-04T01:02:53.899Z,65.40
2023-05-04T01:05:24.142Z,65.56
2023-05-04T01:08:00.046Z,65.63
2023-05-04T01:10:35.700Z,65.90
2023-05-04T01:13:09.737Z,65.70
2023-05-04T01:15:40.150Z,66.09
2023-05-04T01:18:08.738Z,66.24
2023-05-04T01:20:37.320Z,65.80
2023-05-04T01:23:07.631Z,65.95
2023-05-04T01:25:41.487Z,65.37
2023-05-04T01:28:13.374Z,65.50
2023-05-04T01:30:46.458Z,65.70
2023-05-04T01:33:17.659Z,65.82
2023-05-04T01:35:46.822Z,66.02
2023-05-04T01:38:17.692Z,66.25
2023-05-04T01:40:46.160Z,66.52
2023-05-04T01:43:14.544Z,66.27
2023-05-04T01:45:43.009Z,65.92
2023-05-04T01:48:13.944Z,66.38
2023-05-04T01:50:42.392Z,66.76
2023-05-04T01:53:11.048Z,66.69
2023-05-04T01:55:40.849Z,66.09
2023-05-04T01:58:12.434Z,65.99
2023-05-04T02:00:40.971Z,66.04
2023-05-04T02:03:09.824Z,66.09
2023-05-04T02:05:38.440Z,66.71
2023-05-04T02:08:07.134Z,66.37
2023-05-04T02:10:35.621Z,66.46
2023-05-04T02:13:05.486Z,66.44
2023-05-04T02:15:34.026Z,66.89
2023-05-04T02:18:02.380Z,66.59
2023-05-04T02:20:30.883Z,66.86
2023-05-04T02:22:59.422Z,66.59
2023-05-04T02:25:27.839Z,65.93
2023-05-04T02:27:56.187Z,66.24
2023-05-04T02:30:26.145Z,66.59
2023-05-04T02:32:54.723Z,66.04
2023-05-04T02:35:24.030Z,65.84
2023-05-04T02:37:52.421Z,66.83
2023-05-04T02:40:20.875Z,66.52
2023-05-04T02:42:49.271Z,66.37
2023-05-04T02:45:18.007Z,66.40
2023-05-04T02:47:47.931Z,66.61
2023-05-04T02:50:17.442Z,66.64
2023-05-04T02:52:45.901Z,66.75
2023-05-04T02:55:14.371Z,66.79
2023-05-04T02:57:42.888Z,67.46
2023-05-04T03:00:12.267Z,66.77
2023-05-04T03:02:41.150Z,67.74
2023-05-04T03:05:11.514Z,67.32
2023-05-04T03:07:39.970Z,67.21
2023-05-04T03:10:10.194Z,66.92
2023-05-04T03:12:38.721Z,67.91
2023-05-04T03:15:08.274Z,67.37
2023-05-04T03:17:37.891Z,66.78
2023-05-04T03:20:08.221Z,66.38
2023-05-04T03:22:38.389Z,67.07
2023-05-04T03:25:08.383Z,67.02
2023-05-04T03:27:37.085Z,67.59
2023-05-04T03:30:06.741Z,67.19
2023-05-04T03:32:36.427Z,67.14
2023-05-04T03:35:05.583Z,67.15
2023-05-04T03:37:33.986Z,66.84
2023-05-04T03:40:04.023Z,67.80
2023-05-04T03:42:32.585Z,67.99
2023-05-04T03:45:03.738Z,67.54
2023-05-04T03:47:32.806Z,68.10
2023-05-04T03:50:01.214Z,67.32
2023-05-04T03:52:29.699Z,67.48
2023-05-04T03:54:58.048Z,67.57
2023-05-04T03:57:27.856Z,67.45
2023-05-04T03:59:57.995Z,68.00
2023-05-04T04:02:27.632Z,67.83
2023-05-04T04:04:56.192Z,68.23
2023-05-04T04:07:25.017Z,68.23
2023-05-04T04:09:53.650Z,68.09
2023-05-04T04:12:22.144Z,67.37
2023-05-04T04:14:52.546Z,68.01
2023-05-04T04:17:21.284Z,67.87
2023-05-04T04:19:49.617Z,67.66
2023-05-04T04:22:18.036Z,68.03
2023-05-04T04:24:46.432Z,67.48
2023-05-04T04:27:14.862Z,67.87
2023-05-04T04:29:44.231Z,68.06
2023-05-04T04:32:14.708Z,68.17
2023-05-04T04:34:43.491Z,68.32
2023-05-04T04:37:12.044Z,68.03
2023-05-04T04:39:40.600Z,67.52
2023-05-04T04:42:09.017Z,67.79
2023-05-04T04:44:37.748Z,67.62
2023-05-04T04:47:06.785Z,67.47
2023-05-04T04:49:36.604Z,68.15
2023-05-04T04:52:05.188Z,67.53
2023-05-04T04:54:34.029Z,67.91
2023-05-04T04:57:03.528Z,67.76
2023-05-04T04:59:32.112Z,68.22
2023-05-04T05:02:00.731Z,67.60
2023-05-04T05:04:29.892Z,68.01
2023-05-04T05:07:00.718Z,68.33
2023-05-04T05:09:29.162Z,68.04
2023-05-04T05:11:57.505Z,68.01
2023-05-04T05:14:26.167Z,68.53
2023-05-04T05:16:54.687Z,67.78
2023-05-04T05:19:23.211Z,67.58
2023-05-04T05:21:51.710Z,69.00
2023-05-04T05:24:21.616Z,68.78
2023-05-04T05:26:50.027Z,68.74
2023-05-04T05:29:18.374Z,68.32
2023-05-04T05:31:46.976Z,68.89
2023-05-04T05:34:15.356Z,68.47
2023-05-04T05:36:44.716Z,69.66
2023-05-04T05:39:13.281Z,69.06
2023-05-04T05:41:43.534Z,69.77
2023-05-04T05:44:13.176Z,69.42
2023-05-04T05:46:41.822Z,68.50
2023-05-04T05:49:11.591Z,69.34
2023-05-04T05:51:40.129Z,69.12
2023-05-04T05:54:08.501Z,69.28
2023-05-04T05:56:36.862Z,68.83
2023-05-04T05:59:06.703Z,69.13
2023-05-04T06:01:35.088Z,69.50
2023-05-04T06:04:04.354Z,69.27
2023-05-04T06:06:32.952Z,69.34
2023-05-04T06:09:01.609Z,69.37
2023-05-04T06:11:30.206Z,69.33
2023-05-04T06:13:58.732Z,69.34
2023-05-04T06:16:28.543Z,68.79
2023-05-04T06:18:57.276Z,69.23
2023-05-04T06:21:26.050Z,67.58
2023-05-04T06:23:54.490Z,65.50
2023-05-04T06:26:23.715Z,63.45
2023-05-04T06:28:52.162Z,61.37
2023-05-04T06:31:20.634Z,60.31
2023-05-04T06:33:50.565Z,57.83
2023-05-04T06:36:19.128Z,55.38
2023-05-04T06:38:47.592Z,53.73
2023-05-04T06:41:16.058Z,51.81
2023-05-04T06:43:44.680Z,50.48
2023-05-04T06:46:13.297Z,49.17
2023-05-04T06:48:41.751Z,48.42
2023-05-04T06:51:11.542Z,47.21
2023-05-04T06:53:39.958Z,47.70
2023-05-04T06:56:09.023Z,48.14
2023-05-04T06:58:37.318Z,47.04
2023-05-04T07:01:09.301Z,45.78
2023-05-04T07:03:39.088Z,43.67
2023-05-04T07:06:08.786Z,43.03
2023-05-04T07:08:38.751Z,42.34
2023-05-04T07:11:07.249Z,41.72
2023-05-04T07:13:35.632Z,41.20
2023-05-04T07:16:04.169Z,41.51
2023-05-04T07:18:32.634Z,42.27
2023-05-04T07:21:16.042Z,42.62
2023-05-04T07:23:46.583Z,42.97
2023-05-04T07:26:14.983Z,43.45
2023-05-04T07:28:44.502Z,42.88
2023-05-04T07:31:14.472Z,43.50
2023-05-04T07:33:42.929Z,43.75
2023-05-04T07:36:11.396Z,43.41
2023-05-04T07:38:39.914Z,42.28
2023-05-04T07:41:10.486Z,41.45
2023-05-04T07:43:38.975Z,39.86
2023-05-04T07:46:07.497Z,40.32
2023-05-04T07:48:35.876Z,39.43
2023-05-04T07:51:04.553Z,38.83
2023-05-04T07:53:32.957Z,39.23
2023-05-04T07:56:11.418Z,39.75
2023-05-04T07:58:39.865Z,39.86
2023-05-04T08:01:09.302Z,40.10
2023-05-04T08:03:37.793Z,39.83
2023-05-04T08:06:06.365Z,40.97
2023-05-04T08:08:34.849Z,40.62
2023-05-04T08:11:18.460Z,40.48
2023-05-04T08:13:50.773Z,41.30
2023-05-04T08:16:19.237Z,41.91
2023-05-04T08:18:47.719Z,41.17
2023-05-04T08:21:16.170Z,41.00
2023-05-04T08:23:44.593Z,40.18
2023-05-04T08:26:12.960Z,41.43
2023-05-04T08:28:41.817Z,41.98
2023-05-04T08:31:11.861Z,41.60
2023-05-04T08:33:40.298Z,42.59
2023-05-04T08:36:10.172Z,42.45
2023-05-04T08:38:38.788Z,42.04
2023-05-04T08:41:07.761Z,41.78
2023-05-04T08:43:37.542Z,42.01
2023-05-04T08:46:07.649Z,42.45
2023-05-04T08:48:38.291Z,43.02
2023-05-04T08:51:08.369Z,41.68
2023-05-04T08:53:38.989Z,41.17
2023-05-04T08:56:10.189Z,40.72
2023-05-04T08:58:40.191Z,40.21
2023-05-04T09:01:09.291Z,39.85
2023-05-04T09:03:39.586Z,40.83
2023-05-04T09:06:09.478Z,40.29
2023-05-04T09:08:37.890Z,41.19
2023-05-04T09:11:06.458Z,39.76
2023-05-04T09:13:35.666Z,40.94
2023-05-04T09:16:05.142Z,41.44
2023-05-04T09:18:42.361Z,40.63
2023-05-04T09:21:12.132Z,39.62
2023-05-04T09:23:48.255Z,39.78
2023-05-04T09:26:17.060Z,39.31
2023-05-04T09:28:45.387Z,39.59
2023-05-04T09:31:15.809Z,38.59
2023-05-04T09:33:45.628Z,38.37
2023-05-04T09:36:15.777Z,38.22
2023-05-04T09:38:44.491Z,36.99
2023-05-04T09:41:12.976Z,37.05
2023-05-04T09:43:42.187Z,36.50
2023-05-04T09:46:17.551Z,36.63
2023-05-04T09:48:55.299Z,35.94
2023-05-04T09:51:25.197Z,35.23
2023-05-04T09:53:54.061Z,35.80
2023-05-04T09:56:33.889Z,35.57
2023-05-04T09:59:02.835Z,36.12
2023-05-04T10:01:31.800Z,35.68
2023-05-04T10:04:03.068Z,35.89
2023-05-04T10:06:31.906Z,35.50
2023-05-04T10:09:01.463Z,36.29
2023-05-04T10:11:30.665Z,36.00
2023-05-04T10:14:00.443Z,36.72
2023-05-04T10:16:39.758Z,36.05
2023-05-04T10:19:34.987Z,37.09
2023-05-04T10:22:15.706Z,34.39
2023-05-04T10:25:23.991Z,32.81
2023-05-04T10:28:06.278Z,31.22
2023-05-04T10:30:35.050Z,31.21
2023-05-04T10:33:03.893Z,30.92
2023-05-04T10:35:33.917Z,30.53
2023-05-04T10:38:02.464Z,31.41
2023-05-04T10:40:36.671Z,31.99
2023-05-04T10:43:05.319Z,31.82
2023-05-04T10:45:37.894Z,32.64
2023-05-04T10:48:08.091Z,31.57
2023-05-04T10:50:45.065Z,32.51
2023-05-04T10:53:13.786Z,32.88
2023-05-04T10:55:43.462Z,33.05
2023-05-04T10:58:15.008Z,32.66
2023-05-04T11:00:45.497Z,32.15
2023-05-04T11:03:14.528Z,32.82
2023-05-04T11:05:46.576Z,32.68
2023-05-04T11:08:19.577Z,32.14
2023-05-04T11:10:48.904Z,32.19
2023-05-04T11:13:17.598Z,31.74
2023-05-04T11:15:49.923Z,32.10
2023-05-04T11:18:28.211Z,30.84
2023-05-04T11:20:58.734Z,32.47
2023-05-04T11:23:28.498Z,32.29
2023-05-04T11:25:57.470Z,32.02
2023-05-04T11:28:33.727Z,31.39
2023-05-04T11:31:02.501Z,29.95
2023-05-04T11:33:31.966Z,30.41
2023-05-04T11:36:02.696Z,30.65
2023-05-04T11:38:31.361Z,30.30
2023-05-04T11:40:59.942Z,30.47
2023-05-04T11:43:28.528Z,30.21
2023-05-04T11:45:59.930Z,30.27
2023-05-04T11:48:29.316Z,29.71
2023-05-04T11:50:58.094Z,29.82
2023-05-04T11:53:28.770Z,30.79
2023-05-04T11:56:03.527Z,30.01
2023-05-04T11:58:31.958Z,30.69
2023-05-04T12:01:00.754Z,30.85
2023-05-04T12:03:43.854Z,30.22
2023-05-04T12:06:20.307Z,30.19
2023-05-04T12:08:50.146Z,30.37
2023-05-04T12:11:21.795Z,29.41
2023-05-04T12:14:03.158Z,30.23
2023-05-04T12:16:31.823Z,30.06
2023-05-04T12:19:05.407Z,30.54
2023-05-04T12:21:34.515Z,30.58
2023-05-04T12:24:05.148Z,31.25
2023-05-04T12:26:33.803Z,31.73
2023-05-04T12:29:02.156Z,30.59
2023-05-04T12:31:30.820Z,30.26
2023-05-04T12:33:59.330Z,30.62
2023-05-04T12:36:27.861Z,30.59
2023-05-04T12:38:56.606Z,31.02
2023-05-04T12:41:27.934Z,30.45
2023-05-04T12:43:56.367Z,30.27
2023-05-04T12:46:24.762Z,30.63
2023-05-04T12:48:53.199Z,30.44
2023-05-04T12:51:21.592Z,29.79
2023-05-04T12:53:50.067Z,30.19
2023-05-04T12:56:18.399Z,29.61
2023-05-04T12:58:48.195Z,29.60
2023-05-04T13:01:16.939Z,29.53
2023-05-04T13:03:45.491Z,30.17
2023-05-04T13:06:14.342Z,29.37
2023-05-04T13:08:44.560Z,30.12
2023-05-04T13:11:13.000Z,29.92
2023-05-04T13:13:41.547Z,30.82
2023-05-04T13:16:11.783Z,28.93
2023-05-04T13:18:40.513Z,29.83
2023-05-04T13:21:08.912Z,30.59
2023-05-04T13:23:37.279Z,30.70
2023-05-04T13:26:06.529Z,30.31
2023-05-04T13:28:35.653Z,29.60
2023-05-04T13:31:05.767Z,29.59
2023-05-04T13:33:38.831Z,30.41
2023-05-04T13:36:08.304Z,29.74
2023-05-04T13:38:36.855Z,29.30
2023-05-04T13:41:06.381Z,29.68
2023-05-04T13:43:34.810Z,29.72
2023-05-04T13:46:04.742Z,30.31
2023-05-04T13:48:34.249Z,29.94
2023-05-04T13:51:05.785Z,30.06
2023-05-04T13:53:34.167Z,30.27
2023-05-04T13:56:02.983Z,30.72
2023-05-04T13:58:31.404Z,30.72
2023-05-04T14:01:00.661Z,30.46
2023-05-04T14:03:29.850Z,30.32
2023-05-04T14:05:58.304Z,30.16
2023-05-04T14:08:28.448Z,29.76
2023-05-04T14:10:56.882Z,29.82
2023-05-04T14:13:25.192Z,30.55
2023-05-04T14:15:53.520Z,30.38
2023-05-04T14:18:22.149Z,29.96
2023-05-04T14:20:50.732Z,29.56
2023-05-04T14:23:19.135Z,29.52
2023-05-04T14:25:52.910Z,29.92
2023-05-04T14:28:21.312Z,29.85
2023-05-04T14:30:49.696Z,29.57
2023-05-04T14:33:18.105Z,29.92
2023-05-04T14:35:48.211Z,30.30
2023-05-04T14:38:17.183Z,30.62
2023-05-04T14:40:47.619Z,30.59
2023-05-04T14:43:19.145Z,30.55
2023-05-04T14:45:47.631Z,29.97
2023-05-04T14:48:15.999Z,29.56
2023-05-04T14:50:44.448Z,29.95
2023-05-04T14:53:12.879Z,30.67
2023-05-04T14:55:42.090Z,30.87
2023-05-04T14:58:10.745Z,31.09
2023-05-04T15:00:40.568Z,30.78
2023-05-04T15:03:09.367Z,30.95
2023-05-04T15:05:38.244Z,30.49
2023-05-04T15:08:07.108Z,30.50
2023-05-04T15:10:35.948Z,30.26
2023-05-04T15:13:04.493Z,30.65
2023-05-04T15:15:33.120Z,31.01
2023-05-04T15:18:02.977Z,31.34
2023-05-04T15:20:31.405Z,30.78
2023-05-04T15:23:00.289Z,30.58
2023-05-04T15:25:28.763Z,30.87
2023-05-04T15:27:57.133Z,31.50
2023-05-04T15:30:25.508Z,30.90
2023-05-04T15:32:54.033Z,31.24
2023-05-04T15:35:24.063Z,31.90
2023-05-04T15:37:52.919Z,31.03
2023-05-04T15:40:21.388Z,31.53
2023-05-04T15:42:49.759Z,31.70
2023-05-04T15:45:18.518Z,32.02
2023-05-04T15:47:47.070Z,31.79
2023-05-04T15:50:15.605Z,31.93
2023-05-04T15:52:45.533Z,32.13
2023-05-04T15:55:25.337Z,31.99
2023-05-04T15:57:55.151Z,32.11
2023-05-04T16:00:24.012Z,31.80
2023-05-04T16:02:52.733Z,31.39
2023-05-04T16:05:21.664Z,31.64
2023-05-04T16:07:52.341Z,32.00
2023-05-04T16:10:21.017Z,31.92
2023-05-04T16:12:50.556Z,32.33
2023-05-04T16:15:19.203Z,32.03
2023-05-04T16:17:47.633Z,32.05
2023-05-04T16:20:16.232Z,32.31
2023-05-04T16:22:44.519Z,32.42
2023-05-04T16:25:14.355Z,32.38
2023-05-04T16:27:43.275Z,32.52
2023-05-04T16:30:12.839Z,32.49
2023-05-04T16:32:41.236Z,32.33
2023-05-04T16:35:10.314Z,32.95
2023-05-04T16:37:38.995Z,32.50
2023-05-04T16:40:15.448Z,32.71
2023-05-04T16:42:44.374Z,32.96
2023-05-04T16:45:14.832Z,32.68
2023-05-04T16:47:44.056Z,32.58
2023-05-04T16:50:13.998Z,32.58
2023-05-04T16:52:42.776Z,33.09
2023-05-04T16:55:12.561Z,32.77
2023-05-04T16:57:42.740Z,32.85
2023-05-04T17:00:13.558Z,33.59
2023-05-04T17:02:42.370Z,33.31
2023-05-04T17:05:11.490Z,33.52
2023-05-04T17:07:43.465Z,33.95
2023-05-04T17:10:12.980Z,33.83
2023-05-04T17:12:43.126Z,33.59
2023-05-04T17:15:13.158Z,33.91
2023-05-04T17:17:41.794Z,33.66
2023-05-04T17:20:14.924Z,33.82
2023-05-04T17:22:44.426Z,33.51
2023-05-04T17:25:13.505Z,34.31
2023-05-04T17:27:44.020Z,34.09
2023-05-04T17:30:13.836Z,34.26
2023-05-04T17:32:42.245Z,33.64
2023-05-04T17:35:20.930Z,33.93
2023-05-04T17:37:57.584Z,34.40
2023-05-04T17:40:27.607Z,34.66
2023-05-04T17:43:00.319Z,34.60
2023-05-04T17:45:28.929Z,34.82
2023-05-04T17:47:57.355Z,34.77
2023-05-04T17:50:26.186Z,35.11
2023-05-04T17:52:55.170Z,35.50
2023-05-04T17:55:25.069Z,35.61
2023-05-04T17:57:53.922Z,35.90
2023-05-04T18:00:24.337Z,36.02
2023-05-04T18:02:52.874Z,36.27
2023-05-04T18:05:21.737Z,36.70
2023-05-04T18:07:50.146Z,37.02
2023-05-04T18:10:18.640Z,37.33
2023-05-04T18:12:47.292Z,37.42
2023-05-04T18:15:17.334Z,37.50
2023-05-04T18:17:48.743Z,37.58
2023-05-04T18:20:17.412Z,37.65
2023-05-04T18:22:46.723Z,38.04
2023-05-04T18:25:15.457Z,38.19
2023-05-04T18:27:43.802Z,38.20
2023-05-04T18:30:12.772Z,38.41
2023-05-04T18:32:41.202Z,38.59
2023-05-04T18:35:11.754Z,38.85
2023-05-04T18:37:40.176Z,39.55
2023-05-04T18:40:09.914Z,39.59
2023-05-04T18:42:38.496Z,39.92
2023-05-04T18:45:08.211Z,40.85
2023-05-04T18:47:36.685Z,41.34
2023-05-04T18:50:05.689Z,41.92
2023-05-04T18:52:35.812Z,42.52
2023-05-04T18:55:04.152Z,42.85
2023-05-04T18:57:32.513Z,43.39
2023-05-04T19:00:00.908Z,43.74
2023-05-04T19:02:30.106Z,44.58
2023-05-04T19:04:58.680Z,45.43
2023-05-04T19:07:27.136Z,46.16
2023-05-04T19:09:58.928Z,46.39
2023-05-04T19:12:27.523Z,47.19
2023-05-04T19:14:55.991Z,47.42
2023-05-04T19:17:24.637Z,48.15
2023-05-04T19:19:53.294Z,48.92
2023-05-04T19:22:21.717Z,49.20
2023-05-04T19:24:52.049Z,49.57
2023-05-04T19:27:22.259Z,49.88
2023-05-04T19:29:50.929Z,50.50
2023-05-04T19:32:24.414Z,50.67
2023-05-04T19:34:53.877Z,50.91
2023-05-04T19:37:22.315Z,51.15
2023-05-04T19:39:50.908Z,51.10
2023-05-04T19:42:19.425Z,51.11
2023-05-04T19:44:50.248Z,51.08
2023-05-04T19:47:18.993Z,51.42
2023-05-04T19:49:48.669Z,51.79
2023-05-04T19:52:17.364Z,51.91
2023-05-04T19:54:48.457Z,51.76
2023-05-04T19:57:17.131Z,52.09
2023-05-04T19:59:46.991Z,52.27
2023-05-04T20:02:17.503Z,52.45
2023-05-04T20:04:46.032Z,52.47
2023-05-04T20:07:14.385Z,52.56
2023-05-04T20:09:42.914Z,52.81
2023-05-04T20:12:12.736Z,52.91
2023-05-04T20:14:43.852Z,53.30
2023-05-04T20:17:12.321Z,53.49
2023-05-04T20:19:43.241Z,53.61
2023-05-04T20:22:11.697Z,53.90
2023-05-04T20:24:40.899Z,54.31
2023-05-04T20:27:11.377Z,54.63
2023-05-04T20:29:39.843Z,54.78
2023-05-04T20:32:09.197Z,54.71
2023-05-04T20:34:39.728Z,54.56
2023-05-04T20:37:09.640Z,54.83
2023-05-04T20:39:38.035Z,55.03
2023-05-04T20:42:06.781Z,55.30
2023-05-04T20:44:36.262Z,55.61
2023-05-04T20:47:05.697Z,55.44
2023-05-04T20:49:34.198Z,55.54
2023-05-04T20:52:03.079Z,56.07
2023-05-04T20:54:32.940Z,56.13
2023-05-04T20:57:01.563Z,56.26
2023-05-04T20:59:30.118Z,56.31
2023-05-04T21:01:58.708Z,57.09
2023-05-04T21:04:27.173Z,57.11
2023-05-04T21:06:55.717Z,57.25
2023-05-04T21:09:24.183Z,56.93
2023-05-04T21:11:55.063Z,57.20
2023-05-04T21:14:23.552Z,57.50
2023-05-04T21:16:51.887Z,57.83
2023-05-04T21:19:20.723Z,57.68
2023-05-04T21:21:49.141Z,57.37
2023-05-04T21:24:17.598Z,57.84
2023-05-04T21:26:46.403Z,58.28
2023-05-04T21:29:16.536Z,58.22
2023-05-04T21:31:45.074Z,58.61
2023-05-04T21:34:13.761Z,58.37
2023-05-04T21:36:44.589Z,58.66
2023-05-04T21:39:13.811Z,58.66
2023-05-04T21:41:42.191Z,58.27
2023-05-04T21:44:10.596Z,58.37
2023-05-04T21:46:41.424Z,58.44
2023-05-04T21:49:09.877Z,58.62
2023-05-04T21:51:38.298Z,58.92
2023-05-04T21:54:06.926Z,59.13
2023-05-04T21:56:35.325Z,58.87
2023-05-04T21:59:04.028Z,58.04
2023-05-04T22:01:32.990Z,58.07
2023-05-04T22:04:03.685Z,58.57
2023-05-04T22:06:32.235Z,58.73
2023-05-04T22:09:00.749Z,58.96
2023-05-04T22:11:29.552Z,58.80
2023-05-04T22:13:58.022Z,59.03
2023-05-04T22:16:26.511Z,59.10
2023-05-04T22:18:55.028Z,59.61
2023-05-04T22:21:24.895Z,59.64
2023-05-04T22:23:53.305Z,59.78
2023-05-04T22:26:21.810Z,60.33
2023-05-04T22:28:50.205Z,60.45
2023-05-04T22:31:18.718Z,60.47
2023-05-04T22:33:47.250Z,60.83
2023-05-04T22:36:15.694Z,60.96
2023-05-04T22:38:45.452Z,60.77
2023-05-04T22:41:14.863Z,61.13
2023-05-04T22:43:43.363Z,61.63
2023-05-04T22:46:15.921Z,61.58
2023-05-04T22:48:44.494Z,61.88
2023-05-04T22:51:13.320Z,62.17
2023-05-04T22:53:41.871Z,62.04
2023-05-04T22:56:12.689Z,62.13
2023-05-04T22:58:41.066Z,62.09
2023-05-04T23:01:11.737Z,61.78
2023-05-04T23:03:40.597Z,61.24
2023-05-04T23:06:09.899Z,61.01
2023-05-04T23:08:38.818Z,61.35
2023-05-04T23:11:07.296Z,61.47
2023-05-04T23:13:37.706Z,61.85
2023-05-04T23:16:07.592Z,62.13
2023-05-04T23:18:36.059Z,62.30
2023-05-04T23:21:04.547Z,62.23
2023-05-04T23:23:33.009Z,61.99
2023-05-04T23:26:01.503Z,62.29
2023-05-04T23:28:29.877Z,62.05
2023-05-04T23:30:59.797Z,61.47
2023-05-04T23:33:28.267Z,61.43
2023-05-04T23:35:56.988Z,61.27
2023-05-04T23:38:26.424Z,61.39
2023-05-04T23:40:55.158Z,61.78
2023-05-04T23:43:23.838Z,62.10
2023-05-04T23:45:59.638Z,62.32
2023-05-04T23:48:29.808Z,62.48
2023-05-04T23:50:59.070Z,62.65
2023-05-04T23:53:27.479Z,62.66
2023-05-04T23:56:02.712Z,62.61
2023-05-04T23:58:33.155Z,62.77
